Time;durP1;ratioP1;P1;durP2;ratioP2;P2;SDS_P1;SDS_P2;PMS_P1;PMS_P2;Temp;Humidity;BMP_temperature;BMP_pressure;BME280_temperature;BME280_humidity;BME280_pressure;Samples;Min_cycle;Max_cycle;Signal;HPM_P1;HPM_P2
2022/12/10 00:00:46;;;;;;;21.08;15.30;;;;;;;2.47;71.52;98743.63;1087677;47;20038;-81
2022/12/10 00:01:52;;;;;;;21.40;15.35;;;;;;;2.48;71.47;98745.31;1087560;54;20046;-81
2022/12/10 00:02:55;;;;;;;21.67;15.65;;;;;;;2.44;71.39;98739.44;1087508;54;20034;-81
2022/12/10 00:04:00;;;;;;;20.98;14.93;;;;;;;2.50;71.36;98743.38;1087531;54;20030;-83
2022/12/10 00:05:01;;;;;;;23.17;16.13;;;;;;;2.48;71.50;98740.03;1087476;54;20623;-81
2022/12/10 00:06:07;;;;;;;21.38;15.20;;;;;;;2.50;71.29;98744.19;1088337;39;20285;-82
2022/12/10 00:07:08;;;;;;;21.80;15.20;;;;;;;2.50;71.29;98741.56;1087619;54;20043;-82
2022/12/10 00:08:12;;;;;;;20.08;15.00;;;;;;;2.57;71.47;98744.53;1087634;46;20026;-82
2022/12/10 00:09:18;;;;;;;23.08;16.75;;;;;;;2.51;71.29;98742.41;1087652;54;20030;-82
2022/12/10 00:10:24;;;;;;;24.00;16.58;;;;;;;2.48;71.21;98743.53;1087489;54;20792;-81
2022/12/10 00:11:26;;;;;;;23.92;16.65;;;;;;;2.39;71.35;98731.06;1087544;54;20804;-81
2022/12/10 00:12:31;;;;;;;22.70;16.65;;;;;;;2.46;71.40;98744.56;1087606;54;20031;-81
2022/12/10 00:13:34;;;;;;;20.90;15.68;;;;;;;2.50;71.14;98744.19;1087888;39;20178;-82
2022/12/10 00:14:39;;;;;;;22.52;17.45;;;;;;;2.47;71.17;98740.97;1087555;54;20018;-81
2022/12/10 00:15:40;;;;;;;23.92;16.77;;;;;;;2.49;71.09;98739.06;1087412;54;20073;-81
2022/12/10 00:16:45;;;;;;;23.42;17.13;;;;;;;2.50;71.21;98738.09;1087543;54;20080;-81
2022/12/10 00:17:46;;;;;;;22.15;15.77;;;;;;;2.56;71.24;98748.16;1087848;39;20572;-81
2022/12/10 00:18:51;;;;;;;23.65;16.85;;;;;;;2.53;71.13;98748.41;1087484;54;20034;-82
2022/12/10 00:19:52;;;;;;;22.08;16.15;;;;;;;2.53;70.85;98743.13;1087557;54;20304;-82
2022/12/10 00:20:57;;;;;;;23.30;15.90;;;;;;;2.52;71.08;98738.81;1088063;46;20038;-82
2022/12/10 00:22:01;;;;;;;21.50;16.10;;;;;;;2.51;71.00;98739.78;1087499;54;20058;-81
2022/12/10 00:23:03;;;;;;;21.77;16.67;;;;;;;2.55;71.11;98743.81;1087536;54;20067;-81
2022/12/10 00:24:08;;;;;;;22.65;16.33;;;;;;;2.53;70.96;98739.66;1087457;54;20035;-81
2022/12/10 00:25:10;;;;;;;24.25;16.35;;;;;;;2.45;71.10;98740.28;1087474;54;20043;-82
2022/12/10 00:26:19;;;;;;;24.00;16.83;;;;;;;2.49;70.92;98744.34;1087472;54;20027;-81
2022/12/10 00:27:20;;;;;;;23.85;17.23;;;;;;;2.49;70.93;98742.56;1087482;54;20030;-79
2022/12/10 00:28:25;;;;;;;23.00;17.23;;;;;;;2.39;71.23;98743.41;1087477;54;20057;-81
2022/12/10 00:29:29;;;;;;;20.60;16.10;;;;;;;2.42;71.37;98745.81;1096276;31;20791;-79
2022/12/10 00:30:32;;;;;;;23.23;17.23;;;;;;;2.44;71.36;98743.91;1089408;39;20590;-82
2022/12/10 00:31:38;;;;;;;24.02;16.73;;;;;;;2.41;71.31;98746.78;1087455;54;20772;-84
2022/12/10 00:32:40;;;;;;;22.83;16.48;;;;;;;2.38;71.32;98754.91;1087597;46;20061;-82
2022/12/10 00:33:45;;;;;;;22.23;16.48;;;;;;;2.37;71.54;98754.09;1087534;54;20033;-82
2022/12/10 00:34:46;;;;;;;28.05;17.77;;;;;;;2.39;71.31;98744.25;1091559;39;20715;-82
2022/12/10 00:35:50;;;;;;;22.40;16.90;;;;;;;2.43;71.35;98742.22;1087573;54;20045;-82
2022/12/10 00:36:52;;;;;;;25.27;17.50;;;;;;;2.39;71.39;98744.25;1087264;54;20883;-83
2022/12/10 00:37:56;;;;;;;25.92;17.92;;;;;;;2.39;71.25;98751.31;1086971;54;20031;-82
2022/12/10 00:38:58;;;;;;;23.35;16.85;;;;;;;2.38;71.35;98752.28;1087566;54;20042;-82
2022/12/10 00:40:02;;;;;;;24.25;16.42;;;;;;;2.45;71.50;98746.41;1088064;39;20598;-82
2022/12/10 00:41:04;;;;;;;21.08;16.38;;;;;;;2.51;71.12;98747.69;1087470;54;20035;-82
2022/12/10 00:42:11;;;;;;;22.33;15.13;;;;;;;2.56;70.83;98749.97;1088460;39;20921;-82
2022/12/10 00:43:12;;;;;;;22.70;15.65;;;;;;;2.58;70.93;98746.22;1087518;54;20034;-82
2022/12/10 00:44:18;;;;;;;19.60;14.55;;;;;;;2.55;71.06;98746.47;1087510;54;20030;-82
2022/12/10 00:45:19;;;;;;;20.85;14.88;;;;;;;2.59;70.85;98745.28;1087356;54;20038;-83
2022/12/10 00:46:24;;;;;;;21.27;15.07;;;;;;;2.65;70.68;98750.03;1087470;54;20030;-83
2022/12/10 00:47:28;;;;;;;19.45;14.10;;;;;;;2.68;70.90;98746.31;1087313;54;20811;-83
2022/12/10 00:48:30;;;;;;;21.48;15.50;;;;;;;2.68;70.96;98745.47;1089387;39;20669;-82
2022/12/10 00:49:34;;;;;;;20.20;14.65;;;;;;;2.69;70.81;98750.66;1087224;54;20053;-82
2022/12/10 00:50:36;;;;;;;20.25;14.77;;;;;;;2.71;70.93;98748.69;1087447;39;20732;-82
2022/12/10 00:51:41;;;;;;;19.40;13.85;;;;;;;2.75;70.66;98754.56;1087213;54;20044;-80
2022/12/10 00:52:42;;;;;;;19.70;13.57;;;;;;;2.78;70.85;98756.94;1087362;54;21084;-80
2022/12/10 00:53:48;;;;;;;19.42;13.50;;;;;;;2.76;70.73;98754.44;1086952;54;20030;-81
2022/12/10 00:54:49;;;;;;;22.05;16.25;;;;;;;2.75;70.66;98749.28;1087998;47;20038;-81
2022/12/10 00:55:55;;;;;;;20.05;14.77;;;;;;;2.73;70.65;98759.97;1087430;54;20678;-82
2022/12/10 00:56:56;;;;;;;19.35;14.80;;;;;;;2.74;70.81;98750.25;1090982;39;20507;-81
2022/12/10 00:58:03;;;;;;;21.92;16.02;;;;;;;2.64;70.65;98751.03;1087352;54;20673;-80
2022/12/10 00:59:05;;;;;;;22.13;15.98;;;;;;;2.59;70.81;98760.28;1087387;54;20061;-81
2022/12/10 01:00:10;;;;;;;25.33;18.35;;;;;;;2.51;70.82;98755.63;1087462;54;20038;-81
2022/12/10 01:01:17;;;;;;;24.02;16.50;;;;;;;2.54;70.83;98758.00;1087447;54;20026;-80
2022/12/10 01:02:21;;;;;;;23.45;17.58;;;;;;;2.47;71.17;98759.44;1087410;54;20031;-81
2022/12/10 01:03:23;;;;;;;22.63;17.25;;;;;;;2.46;71.18;98768.31;1087764;39;20234;-80
2022/12/10 01:04:27;;;;;;;23.13;17.20;;;;;;;2.48;70.92;98764.63;1087352;54;20039;-80
2022/12/10 01:05:29;;;;;;;21.48;16.40;;;;;;;2.46;71.22;98763.03;1087387;54;20056;-80
2022/12/10 01:06:35;;;;;;;20.80;15.35;;;;;;;2.53;70.87;98760.75;1087493;54;20038;-80
2022/12/10 01:07:37;;;;;;;20.95;15.43;;;;;;;2.56;70.65;98761.34;1087456;54;20928;-80
2022/12/10 01:08:41;;;;;;;23.67;17.33;;;;;;;2.49;70.99;98760.16;1087407;54;20046;-80
2022/12/10 01:09:45;;;;;;;23.70;17.13;;;;;;;2.41;71.04;98759.97;1087370;54;20031;-80
2022/12/10 01:10:52;;;;;;;22.48;16.42;;;;;;;2.37;70.91;98758.50;1087291;54;20030;-80
2022/12/10 01:11:58;;;;;;;22.45;16.90;;;;;;;2.38;71.18;98765.47;1087304;54;20038;-80
2022/12/10 01:13:02;;;;;;;24.02;17.30;;;;;;;2.39;70.97;98765.38;1087382;54;20034;-81
2022/12/10 01:14:07;;;;;;;25.00;17.67;;;;;;;2.34;71.24;98759.59;1087621;46;20110;-81
2022/12/10 01:15:09;;;;;;;25.27;18.50;;;;;;;2.31;71.26;98765.97;1087389;54;20077;-81
2022/12/10 01:16:15;;;;;;;24.88;17.45;;;;;;;2.29;71.42;98761.78;1087513;47;20065;-84
2022/12/10 01:17:21;;;;;;;21.27;15.77;;;;;;;2.35;71.46;98769.19;1088832;39;20803;-80
2022/12/10 01:18:22;;;;;;;25.35;17.60;;;;;;;2.30;71.48;98769.56;1090453;39;20953;-83
2022/12/10 01:19:27;;;;;;;21.58;15.48;;;;;;;2.41;71.29;98778.44;1087410;54;20034;-82
2022/12/10 01:20:28;;;;;;;21.27;15.57;;;;;;;2.48;71.18;98776.97;1087479;54;20038;-83
2022/12/10 01:21:32;;;;;;;24.00;16.88;;;;;;;2.43;71.20;98779.16;1087764;47;20098;-82
2022/12/10 01:22:34;;;;;;;26.33;17.45;;;;;;;2.41;71.06;98779.25;1087485;54;20042;-82
2022/12/10 01:23:40;;;;;;;21.15;15.13;;;;;;;2.51;71.13;98776.72;1095151;39;20694;-82
2022/12/10 01:24:42;;;;;;;21.45;15.85;;;;;;;2.49;70.72;98773.34;1087418;54;20030;-83
2022/12/10 01:25:46;;;;;;;23.65;17.50;;;;;;;2.46;71.13;98776.25;1087339;54;20031;-83
2022/12/10 01:26:51;;;;;;;22.23;15.63;;;;;;;2.48;71.02;98782.22;1087409;54;20034;-82
2022/12/10 01:27:52;;;;;;;21.30;16.08;;;;;;;2.50;70.79;98775.03;1087474;54;20038;-83
2022/12/10 01:29:00;;;;;;;23.95;17.65;;;;;;;2.48;70.80;98779.59;1087448;54;20030;-81
2022/12/10 01:30:01;;;;;;;20.90;15.70;;;;;;;2.54;70.91;98786.19;1087366;54;20868;-81
2022/12/10 01:31:08;;;;;;;19.80;14.70;;;;;;;2.60;71.00;98783.88;1087285;54;20081;-82
2022/12/10 01:32:09;;;;;;;22.35;15.90;;;;;;;2.62;70.80;98781.13;1087494;54;20057;-82
2022/12/10 01:33:14;;;;;;;20.67;14.80;;;;;;;2.64;70.59;98782.69;1088378;47;20042;-82
2022/12/10 01:34:15;;;;;;;19.63;14.15;;;;;;;2.67;70.54;98786.00;1087488;54;20030;-82
2022/12/10 01:35:19;;;;;;;19.15;13.73;;;;;;;2.68;70.48;98777.13;1087369;54;20026;-82
2022/12/10 01:36:23;;;;;;;21.13;15.55;;;;;;;2.61;70.52;98784.72;1089326;47;20039;-82
2022/12/10 01:37:28;;;;;;;24.42;16.23;;;;;;;2.59;70.66;98786.66;1087546;47;20051;-82
2022/12/10 01:38:29;;;;;;;23.05;16.48;;;;;;;2.61;70.74;98784.72;1088506;39;20835;-83
2022/12/10 01:39:33;;;;;;;23.67;16.55;;;;;;;2.59;70.40;98787.50;1086926;54;20033;-82
2022/12/10 01:40:37;;;;;;;20.60;15.88;;;;;;;2.59;70.81;98789.31;1087097;54;20038;-81
2022/12/10 01:41:44;;;;;;;19.65;14.30;;;;;;;2.62;70.59;98795.16;1087462;54;20086;-81
2022/12/10 01:42:46;;;;;;;21.65;15.70;;;;;;;2.60;70.54;98791.81;1087432;54;20030;-83
2022/12/10 01:43:53;;;;;;;25.20;16.70;;;;;;;2.61;70.58;98793.47;1088953;39;20676;-83
2022/12/10 01:45:08;;;;;;;22.83;15.50;;;;;;;2.56;70.76;98790.38;1087363;54;20831;-82
2022/12/10 01:46:12;;;;;;;22.50;15.77;;;;;;;2.57;70.71;98785.94;1089423;39;20652;-83
2022/12/10 01:47:13;;;;;;;22.70;15.55;;;;;;;2.62;70.79;98794.31;1087487;54;20080;-82
2022/12/10 01:48:18;;;;;;;22.33;14.75;;;;;;;2.65;70.68;98789.63;1087490;54;20037;-83
2022/12/10 01:49:22;;;;;;;19.98;15.13;;;;;;;2.64;70.61;98800.31;1091028;39;20717;-82
2022/12/10 01:50:27;;;;;;;19.58;13.75;;;;;;;2.67;70.53;98791.28;1087424;54;20034;-83
2022/12/10 01:51:30;;;;;;;20.88;15.60;;;;;;;2.61;70.65;98793.47;1087513;54;20034;-83
2022/12/10 01:52:35;;;;;;;19.95;14.95;;;;;;;2.68;70.57;98793.81;1087580;47;20034;-82
2022/12/10 01:53:36;;;;;;;20.90;15.23;;;;;;;2.69;70.35;98799.94;1087512;54;20053;-83
2022/12/10 01:54:43;;;;;;;20.25;15.70;;;;;;;2.58;70.27;98799.00;1087429;54;20042;-81
2022/12/10 01:55:49;;;;;;;23.77;17.83;;;;;;;2.50;70.85;98806.69;1087441;54;20049;-83
2022/12/10 01:57:00;;;;;;;21.92;15.40;;;;;;;2.57;70.55;98807.88;1089620;39;20612;-83
2022/12/10 01:58:02;;;;;;;21.10;15.88;;;;;;;2.61;70.44;98809.31;1087402;54;20037;-81
2022/12/10 01:59:08;;;;;;;20.23;15.32;;;;;;;2.64;70.46;98803.81;1087812;54;20030;-83
2022/12/10 02:00:13;;;;;;;19.58;14.02;;;;;;;2.70;70.43;98806.88;1087768;54;20034;-83
2022/12/10 02:01:23;;;;;;;22.77;16.98;;;;;;;2.63;70.48;98807.41;1087754;54;20907;-83
2022/12/10 02:02:34;;;;;;;21.50;15.23;;;;;;;2.62;70.79;98810.13;1087806;54;20034;-82
2022/12/10 02:03:49;;;;;;;19.50;14.82;;;;;;;2.67;70.35;98807.13;1087704;54;20030;-82
2022/12/10 02:05:02;;;;;;;21.88;14.68;;;;;;;2.61;70.59;98804.03;1087769;54;20054;-82
2022/12/10 02:06:16;;;;;;;19.50;14.30;;;;;;;2.65;70.48;98807.25;1087731;54;20034;-82
2022/12/10 02:07:23;;;;;;;19.95;15.43;;;;;;;2.67;70.33;98807.13;1087743;54;20034;-82
2022/12/10 02:08:33;;;;;;;23.00;15.95;;;;;;;2.57;70.40;98807.88;1087729;54;20084;-82
2022/12/10 02:09:43;;;;;;;22.23;15.70;;;;;;;2.49;70.72;98807.66;1087826;54;20053;-82
2022/12/10 02:10:59;;;;;;;23.27;15.85;;;;;;;2.48;70.54;98804.19;1087814;54;20038;-81
2022/12/10 02:12:11;;;;;;;24.65;17.88;;;;;;;2.42;70.80;98811.75;1087761;54;20034;-82
2022/12/10 02:13:22;;;;;;;25.50;17.25;;;;;;;2.36;71.24;98806.97;1087777;54;21073;-81
2022/12/10 02:14:27;;;;;;;;;;;;;;;2.29;71.32;98820.63;1087992;54;21002;-82
2022/12/10 02:15:39;;;;;;;21.30;14.77;;;;;;;2.35;71.19;98811.41;1088641;46;19942;-82
2022/12/10 02:16:49;;;;;;;24.33;16.90;;;;;;;2.36;71.26;98810.44;1087843;54;21023;-82
2022/12/10 02:17:54;;;;;;;25.15;18.17;;;;;;;2.28;71.41;98811.03;1087804;54;20030;-81
2022/12/10 02:19:10;;;;;;;26.63;18.88;;;;;;;2.18;71.59;98807.47;1087900;54;20090;-82
2022/12/10 02:20:17;;;;;;;24.58;17.80;;;;;;;2.10;72.16;98813.38;1092929;39;20618;-82
2022/12/10 02:21:26;;;;;;;24.52;18.00;;;;;;;2.14;72.05;98804.22;1087835;54;20098;-82
2022/12/10 02:22:32;;;;;;;29.83;19.95;;;;;;;2.13;71.96;98807.00;1088199;46;20035;-81
2022/12/10 02:23:39;;;;;;;25.98;19.42;;;;;;;2.08;72.44;98809.19;1087877;54;20034;-82
2022/12/10 02:24:42;;;;;;;25.48;18.80;;;;;;;2.02;72.51;98808.69;1089185;46;20034;-83
2022/12/10 02:25:54;;;;;;;25.13;17.45;;;;;;;1.98;72.84;98812.53;1095180;39;20092;-81
2022/12/10 02:27:03;;;;;;;25.75;19.00;;;;;;;1.99;72.53;98808.91;1088179;54;20034;-80
2022/12/10 02:28:14;;;;;;;23.75;16.58;;;;;;;2.03;72.77;98809.53;1088321;54;20078;-81
2022/12/10 02:29:22;;;;;;;25.30;18.15;;;;;;;2.12;72.55;98810.59;1088138;54;20061;-81
2022/12/10 02:30:27;;;;;;;24.38;16.95;;;;;;;2.09;72.31;98805.56;1088252;54;20022;-80
2022/12/10 02:31:32;;;;;;;25.45;18.23;;;;;;;2.07;72.39;98807.50;1088074;54;20035;-81
2022/12/10 02:32:40;;;;;;;23.58;17.23;;;;;;;2.09;72.42;98805.56;1088213;54;20090;-85
2022/12/10 02:33:46;;;;;;;28.25;18.13;;;;;;;2.08;72.30;98801.28;1088028;54;20050;-82
2022/12/10 02:34:54;;;;;;;26.95;18.73;;;;;;;2.10;72.15;98807.22;1087811;54;20030;-81
2022/12/10 02:35:58;;;;;;;23.88;17.35;;;;;;;2.13;72.20;98799.91;1087815;54;20835;-81
2022/12/10 02:37:07;;;;;;;23.58;17.63;;;;;;;2.20;71.84;98799.44;1087914;54;20076;-81
2022/12/10 02:38:13;;;;;;;21.35;16.67;;;;;;;2.21;71.80;98798.50;1087895;54;20050;-80
2022/12/10 02:39:21;;;;;;;22.83;16.70;;;;;;;2.25;71.83;98797.28;1087711;54;20031;-81
2022/12/10 02:40:29;;;;;;;20.10;14.57;;;;;;;2.28;71.63;98792.59;1088008;54;20030;-79
2022/12/10 02:41:36;;;;;;;25.25;18.25;;;;;;;2.26;71.63;98789.25;1088076;46;20438;-80
2022/12/10 02:42:40;;;;;;;23.08;16.52;;;;;;;2.26;71.76;98788.41;1088084;54;20058;-79
2022/12/10 02:43:48;;;;;;;22.52;16.88;;;;;;;2.25;71.98;98795.50;1089464;46;20746;-80
2022/12/10 02:44:53;;;;;;;24.70;17.88;;;;;;;2.24;71.93;98790.31;1087970;54;20046;-79
2022/12/10 02:46:00;;;;;;;24.75;17.33;;;;;;;2.23;71.87;98793.91;1088082;54;21127;-79
2022/12/10 02:47:02;;;;;;;23.92;16.88;;;;;;;2.18;72.14;98797.78;1089678;46;20026;-80
2022/12/10 02:48:08;;;;;;;21.23;17.08;;;;;;;2.20;72.48;98796.81;1088677;46;20034;-82
2022/12/10 19:08:02;;;;;;;24.90;18.13;;;;;;;1.74;67.42;99330.94;1087427;54;20380;-82
2022/12/10 19:09:13;;;;;;;23.40;17.48;;;;;;;1.78;67.04;99332.44;1087750;54;20030;-81
2022/12/10 19:10:20;;;;;;;22.98;16.65;;;;;;;1.68;67.14;99327.78;1087850;54;20041;-81
2022/12/10 19:11:26;;;;;;;24.33;17.00;;;;;;;1.65;67.12;99335.91;1087733;54;20046;-80
2022/12/10 19:12:27;;;;;;;24.02;17.42;;;;;;;1.84;66.64;99332.81;1087547;54;20783;-83
2022/12/10 19:13:32;;;;;;;21.17;15.32;;;;;;;1.92;66.40;99323.56;1087734;54;20056;-80
2022/12/10 19:14:36;;;;;;;23.15;17.58;;;;;;;1.80;66.61;99326.09;1087620;54;20046;-81
2022/12/10 19:15:44;;;;;;;24.48;17.17;;;;;;;1.61;67.29;99337.03;1087718;54;20077;-80
2022/12/10 19:16:49;;;;;;;25.10;17.15;;;;;;;1.61;67.36;99338.84;1087572;54;20804;-85
2022/12/10 19:17:53;;;;;;;25.30;17.73;;;;;;;1.48;67.73;99336.22;1087492;54;20042;-81
2022/12/10 19:19:00;;;;;;;27.70;17.92;;;;;;;1.24;68.46;99334.25;1087525;54;20066;-82
2022/12/10 19:20:05;;;;;;;26.45;18.95;;;;;;;1.19;69.12;99331.94;1087504;54;20053;-81
2022/12/10 19:21:09;;;;;;;27.65;18.80;;;;;;;1.09;69.23;99331.72;1087517;54;20808;-81
2022/12/10 19:22:13;;;;;;;28.75;19.30;;;;;;;1.11;69.16;99331.59;1087471;54;20030;-81
2022/12/10 19:23:17;;;;;;;25.83;18.63;;;;;;;1.13;69.34;99335.00;1087838;46;20034;-81
2022/12/10 19:24:22;;;;;;;26.48;18.50;;;;;;;1.14;69.28;99333.19;1087539;54;20049;-81
2022/12/10 19:25:23;;;;;;;25.35;18.58;;;;;;;1.13;69.35;99336.78;1087790;39;20899;-81
2022/12/10 19:26:31;;;;;;;26.40;17.90;;;;;;;1.13;69.46;99332.34;1087710;54;20034;-81
2022/12/10 19:27:37;;;;;;;26.83;18.85;;;;;;;1.09;69.59;99336.97;1088025;39;21029;-82
2022/12/10 19:28:41;;;;;;;25.95;17.75;;;;;;;1.09;69.68;99336.97;1087532;54;20038;-80
2022/12/10 19:29:46;;;;;;;30.05;19.88;;;;;;;0.95;70.32;99344.94;1087628;54;20019;-79
2022/12/10 19:30:51;;;;;;;27.55;19.83;;;;;;;0.95;70.43;99338.84;1087370;54;20015;-80
2022/12/10 19:31:53;;;;;;;29.23;20.92;;;;;;;0.98;70.14;99343.91;1088454;46;20138;-80
2022/12/10 19:32:57;;;;;;;25.98;18.08;;;;;;;0.97;70.18;99337.78;1087207;54;20043;-81
2022/12/10 19:33:59;;;;;;;26.02;17.98;;;;;;;1.09;69.92;99336.13;1087246;54;20050;-81
2022/12/10 19:35:03;;;;;;;23.55;16.67;;;;;;;1.26;69.43;99335.00;1087527;54;20052;-80
2022/12/10 19:36:17;;;;;;;24.15;15.75;;;;;;;1.33;69.06;99340.72;1087485;54;20030;-81
2022/12/10 19:37:19;;;;;;;25.45;17.90;;;;;;;1.15;69.57;99340.16;1087600;46;20070;-80
2022/12/10 19:39:34;;;;;;;24.48;17.17;;;;;;;1.23;69.55;99343.97;1087516;54;20874;-83
2022/12/10 19:40:39;;;;;;;23.85;16.08;;;;;;;1.35;69.24;99346.72;1087869;54;20038;-86
2022/12/10 19:41:40;;;;;;;27.05;18.05;;;;;;;1.20;69.39;99344.16;1087839;54;20034;-81
2022/12/10 19:42:46;;;;;;;25.73;18.10;;;;;;;1.20;69.57;99345.97;1087457;54;20030;-83
2022/12/10 19:43:50;;;;;;;25.00;17.75;;;;;;;1.15;69.71;99342.78;1087541;54;20049;-82
2022/12/10 19:44:52;;;;;;;26.77;17.58;;;;;;;1.02;70.22;99345.38;1087281;54;20090;-82
2022/12/10 19:45:57;;;;;;;25.73;18.95;;;;;;;1.00;70.42;99342.00;1087613;54;20647;-82
2022/12/10 19:47:02;;;;;;;26.42;19.13;;;;;;;0.89;71.08;99346.19;1088704;46;20019;-82
2022/12/10 19:48:12;;;;;;;25.98;17.85;;;;;;;0.93;71.10;99344.22;1088273;54;20058;-81
2022/12/10 19:49:20;;;;;;;31.30;18.88;;;;;;;0.92;71.04;99339.88;1088321;54;20038;-82
2022/12/10 19:50:24;;;;;;;24.90;18.13;;;;;;;0.96;70.70;99336.09;1088965;46;20018;-82
2022/12/10 19:51:29;;;;;;;28.33;19.95;;;;;;;0.99;70.58;99337.72;1087797;54;20058;-80
2022/12/10 19:52:30;;;;;;;27.58;19.05;;;;;;;0.97;70.82;99340.41;1087821;54;20054;-82
2022/12/10 19:53:35;;;;;;;27.48;19.80;;;;;;;0.87;71.06;99336.69;1088550;46;20026;-83
2022/12/10 19:54:41;;;;;;;29.67;19.73;;;;;;;0.86;71.45;99340.28;1087652;54;20065;-82
2022/12/10 19:55:46;;;;;;;26.52;19.35;;;;;;;0.88;71.36;99331.34;1087730;54;20776;-81
2022/12/10 19:56:50;;;;;;;29.05;18.42;;;;;;;0.89;71.44;99332.19;1088270;54;20034;-82
2022/12/10 19:57:54;;;;;;;26.80;18.55;;;;;;;0.87;71.61;99334.94;1088961;46;20022;-80
2022/12/10 19:58:58;;;;;;;25.25;18.83;;;;;;;0.87;71.64;99331.44;1087739;54;20038;-81
2022/12/10 20:00:02;;;;;;;26.75;19.55;;;;;;;0.91;71.59;99333.75;1087614;54;20033;-80
2022/12/10 20:01:05;;;;;;;25.08;17.48;;;;;;;0.96;71.09;99330.00;1087602;54;20018;-79
2022/12/10 20:02:11;;;;;;;25.30;17.25;;;;;;;1.00;71.19;99339.38;1087583;54;20038;-84
2022/12/10 20:03:16;;;;;;;25.40;18.13;;;;;;;0.97;71.14;99337.78;1088129;54;20034;-81
2022/12/10 20:04:21;;;;;;;25.70;18.50;;;;;;;0.95;71.24;99336.22;1088183;54;20011;-81
2022/12/10 20:05:25;;;;;;;26.40;18.70;;;;;;;0.91;71.45;99333.75;1087592;54;20069;-81
2022/12/10 20:06:30;;;;;;;27.63;18.90;;;;;;;0.90;71.32;99336.50;1087666;54;20034;-80
2022/12/10 20:07:34;;;;;;;27.95;19.48;;;;;;;0.91;71.45;99332.94;1087604;54;20069;-84
2022/12/10 20:08:36;;;;;;;23.77;17.55;;;;;;;0.94;71.26;99332.75;1087665;54;20034;-80
2022/12/10 20:09:44;;;;;;;25.02;17.77;;;;;;;0.93;71.40;99336.31;1087676;54;20037;-80
2022/12/10 20:10:48;;;;;;;26.30;18.73;;;;;;;0.86;71.53;99329.75;1087600;54;20030;-80
2022/12/10 20:11:52;;;;;;;27.55;19.05;;;;;;;0.82;71.77;99330.91;1087669;54;20046;-80
2022/12/10 20:12:56;;;;;;;29.08;20.60;;;;;;;0.83;72.00;99333.44;1087546;54;20038;-81
2022/12/10 20:13:58;;;;;;;26.27;18.20;;;;;;;0.82;71.75;99329.09;1087649;54;20030;-82
2022/12/10 20:15:02;;;;;;;27.27;19.33;;;;;;;0.89;71.85;99332.19;1087638;54;20045;-81
2022/12/10 20:16:05;;;;;;;26.25;18.75;;;;;;;0.93;71.82;99334.50;1087504;54;20030;-80
2022/12/10 20:17:15;;;;;;;28.95;19.25;;;;;;;0.82;71.94;99338.81;1087561;54;20042;-81
2022/12/10 20:18:19;;;;;;;27.90;19.58;;;;;;;0.78;72.32;99332.91;1087680;54;20029;-81
2022/12/10 20:19:25;;;;;;;28.40;19.48;;;;;;;0.84;71.97;99336.91;1087611;54;20793;-83
2022/12/10 20:20:28;;;;;;;29.00;20.90;;;;;;;0.86;71.78;99329.75;1087719;54;20035;-83
2022/12/10 20:21:32;;;;;;;27.30;20.10;;;;;;;0.80;72.04;99331.00;1087665;54;20030;-79
2022/12/10 20:22:37;;;;;;;27.50;18.95;;;;;;;0.85;72.14;99323.66;1087622;54;20041;-82
2022/12/10 20:23:39;;;;;;;27.67;19.17;;;;;;;0.79;72.46;99334.59;1087623;54;20035;-83
2022/12/10 20:24:46;;;;;;;28.08;19.88;;;;;;;0.74;72.48;99328.75;1087637;54;20036;-82
2022/12/10 20:25:51;;;;;;;27.50;18.75;;;;;;;0.75;72.43;99328.69;1087655;54;20045;-82
2022/12/10 20:26:53;;;;;;;27.42;19.25;;;;;;;0.75;72.38;99333.94;1087619;54;20023;-81
2022/12/10 20:27:58;;;;;;;27.38;19.60;;;;;;;0.74;72.61;99334.03;1087885;47;20046;-81
2022/12/10 20:29:03;;;;;;;28.95;19.65;;;;;;;0.76;72.33;99332.97;1087666;54;20042;-80
2022/12/10 20:30:09;;;;;;;26.45;18.42;;;;;;;0.66;72.85;99329.28;1089796;47;20042;-82
2022/12/10 20:31:15;;;;;;;27.02;19.65;;;;;;;0.70;72.68;99336.00;1089873;39;20702;-80
2022/12/10 20:32:19;;;;;;;28.48;18.90;;;;;;;0.69;72.75;99336.94;1087574;54;20074;-80
2022/12/10 20:33:24;;;;;;;26.88;19.23;;;;;;;0.71;72.66;99336.88;1087606;54;21028;-80
2022/12/10 20:34:28;;;;;;;28.40;19.50;;;;;;;0.63;72.91;99342.63;1090148;39;21041;-82
2022/12/10 20:35:30;;;;;;;28.05;19.38;;;;;;;0.71;72.66;99342.97;1087596;54;20065;-82
2022/12/10 20:36:35;;;;;;;25.20;18.25;;;;;;;0.73;72.43;99345.50;1087566;54;20027;-83
2022/12/10 20:37:36;;;;;;;27.98;19.05;;;;;;;0.70;72.82;99343.91;1087519;54;20739;-82
2022/12/10 20:38:40;;;;;;;27.50;19.80;;;;;;;0.64;72.96;99344.31;1087622;54;20038;-82
2022/12/10 20:39:47;;;;;;;26.33;19.23;;;;;;;0.70;72.84;99351.81;1087433;54;20030;-83
2022/12/10 20:40:51;;;;;;;27.42;19.67;;;;;;;0.65;72.83;99353.91;1087591;54;20810;-82
2022/12/10 20:41:56;;;;;;;28.25;19.00;;;;;;;0.69;72.94;99344.84;1087474;54;20046;-82
2022/12/10 20:42:58;;;;;;;28.27;19.25;;;;;;;0.68;72.71;99347.59;1087567;54;20030;-82
2022/12/10 20:44:02;;;;;;;26.05;19.15;;;;;;;0.66;72.89;99346.84;1087588;54;20034;-82
2022/12/10 20:45:07;;;;;;;24.98;18.50;;;;;;;0.67;73.14;99348.53;1088132;54;20046;-82
2022/12/10 20:46:16;;;;;;;27.65;18.50;;;;;;;0.73;72.97;99348.13;1088416;47;20750;-81
2022/12/10 20:47:20;;;;;;;26.33;19.52;;;;;;;0.68;72.82;99345.78;1087625;54;20702;-82
2022/12/10 20:48:26;;;;;;;26.92;18.23;;;;;;;0.66;73.11;99350.31;1088223;54;20126;-83
2022/12/10 20:49:30;;;;;;;29.65;19.98;;;;;;;0.65;73.14;99345.16;1088301;54;20015;-82
2022/12/10 20:50:34;;;;;;;26.33;19.02;;;;;;;0.68;73.11;99343.16;1090971;47;20026;-81
2022/12/10 20:51:36;;;;;;;24.50;18.17;;;;;;;0.64;73.26;99346.94;1087587;54;20030;-81
2022/12/10 20:52:41;;;;;;;26.35;18.77;;;;;;;0.72;73.12;99343.78;1088402;39;20555;-81
2022/12/10 20:53:42;;;;;;;26.20;18.50;;;;;;;0.77;72.77;99353.09;1087585;54;20030;-81
2022/12/10 20:54:49;;;;;;;26.48;18.88;;;;;;;0.68;72.77;99353.69;1087516;54;20090;-81
2022/12/10 20:55:53;;;;;;;28.33;20.27;;;;;;;0.54;73.51;99348.47;1087614;54;20042;-81
2022/12/10 20:56:59;;;;;;;31.58;21.50;;;;;;;0.43;73.70;99347.38;1088344;39;20531;-81
2022/12/10 20:58:03;;;;;;;30.60;21.67;;;;;;;0.51;73.74;99356.56;1087352;54;20110;-80
2022/12/10 20:59:05;;;;;;;28.88;20.98;;;;;;;0.56;73.50;99354.47;1087529;54;20034;-81
2022/12/10 21:00:17;;;;;;;27.98;19.83;;;;;;;0.56;73.37;99360.56;1087550;54;20038;-79
2022/12/10 21:01:22;;;;;;;28.23;20.10;;;;;;;0.62;73.45;99359.34;1087517;54;20030;-80
2022/12/10 21:02:26;;;;;;;28.88;21.27;;;;;;;0.59;73.44;99354.28;1087505;54;20065;-81
2022/12/10 21:03:29;;;;;;;27.70;19.27;;;;;;;0.57;73.64;99358.78;1087564;54;20706;-81
2022/12/10 21:04:33;;;;;;;28.10;20.30;;;;;;;0.59;73.35;99357.75;1087581;54;20037;-81
2022/12/10 21:05:35;;;;;;;28.73;20.13;;;;;;;0.59;73.58;99359.53;1087548;54;20784;-81
2022/12/10 21:06:39;;;;;;;26.13;19.27;;;;;;;0.59;73.35;99356.91;1090584;39;20668;-80
2022/12/10 21:07:44;;;;;;;27.98;19.05;;;;;;;0.59;73.56;99365.66;1087474;54;20035;-81
2022/12/10 21:08:49;;;;;;;29.77;19.27;;;;;;;0.60;73.39;99366.47;1087591;54;20034;-81
2022/12/10 21:09:55;;;;;;;28.50;18.63;;;;;;;0.65;73.39;99363.56;1087608;54;20069;-81
2022/12/10 21:10:57;;;;;;;27.48;19.48;;;;;;;0.60;73.20;99364.72;1087534;54;20042;-81
2022/12/10 21:12:02;;;;;;;28.55;19.65;;;;;;;0.49;73.69;99364.53;1087533;54;20047;-80
2022/12/10 21:13:05;;;;;;;27.95;19.77;;;;;;;0.53;73.68;99365.19;1087456;54;20046;-81
2022/12/10 21:14:09;;;;;;;28.67;20.35;;;;;;;0.52;73.78;99352.97;1087624;54;20055;-81
2022/12/10 21:15:13;;;;;;;28.63;19.70;;;;;;;0.51;73.66;99361.81;1087556;54;20042;-81
2022/12/10 21:16:18;;;;;;;28.75;20.45;;;;;;;0.50;73.76;99360.13;1087538;54;20046;-81
2022/12/10 21:17:23;;;;;;;30.30;20.88;;;;;;;0.41;73.90;99351.88;1088187;47;20919;-82
2022/12/10 21:18:26;;;;;;;27.83;19.75;;;;;;;0.37;74.25;99355.66;1087537;54;20034;-81
2022/12/10 21:19:31;;;;;;;28.17;19.55;;;;;;;0.38;74.07;99348.59;1087547;54;20034;-81
2022/12/10 21:20:33;;;;;;;30.58;21.30;;;;;;;0.43;74.05;99352.63;1087605;54;20023;-81
2022/12/10 21:21:38;;;;;;;27.73;19.40;;;;;;;0.43;73.92;99360.50;1087533;47;20825;-81
2022/12/10 21:22:40;;;;;;;30.80;21.48;;;;;;;0.39;74.12;99359.00;1087494;54;20046;-80